createdAt,value
2018-06-09T00:00:18.648Z,20.62
2018-06-09T00:01:18.643Z,20.56
2018-06-09T00:02:18.371Z,20.61
2018-06-09T00:03:18.621Z,20.61
2018-06-09T00:04:18.347Z,20.53
2018-06-09T00:05:18.343Z,20.53
2018-06-09T00:06:18.327Z,20.5
2018-06-09T00:07:18.322Z,20.54
2018-06-09T00:08:18.310Z,20.56
2018-06-09T00:09:18.305Z,20.61
2018-06-09T00:10:18.556Z,20.58
2018-06-09T00:11:18.281Z,20.62
2018-06-09T00:12:18.547Z,20.59
2018-06-09T00:13:18.002Z,20.53
2018-06-09T00:14:18.523Z,20.51
2018-06-09T00:15:18.506Z,20.49
2018-06-09T00:16:18.513Z,20.53
2018-06-09T00:17:18.233Z,20.51
2018-06-09T00:18:18.473Z,20.51
2018-06-09T00:19:18.206Z,20.47
2018-06-09T00:20:18.200Z,20.47
2018-06-09T00:21:18.228Z,20.39
2018-06-09T00:22:18.177Z,20.38
2018-06-09T00:23:18.432Z,20.41
2018-06-09T00:24:18.426Z,20.38
2018-06-09T00:25:18.420Z,20.38
2018-06-09T00:26:18.149Z,20.43
2018-06-09T00:27:18.134Z,20.46
2018-06-09T00:28:17.860Z,20.34
2018-06-09T00:29:18.378Z,20.25
2018-06-09T00:30:18.099Z,20.35
2018-06-09T00:31:18.092Z,20.3
2018-06-09T00:32:18.081Z,20.33
2018-06-09T00:33:18.335Z,20.2
2018-06-09T00:34:18.335Z,20.25
2018-06-09T00:35:18.325Z,20.27
2018-06-09T00:36:18.049Z,20.27
2018-06-09T00:37:18.037Z,20.28
2018-06-09T00:38:18.290Z,20.23
2018-06-09T00:39:18.013Z,20.2
2018-06-09T00:40:18.008Z,20.09
2018-06-09T00:41:18.002Z,20.2
2018-06-09T00:42:18.261Z,20.16
2018-06-09T00:43:17.713Z,20.13
2018-06-09T00:44:17.712Z,20.08
2018-06-09T00:45:18.226Z,20.1
2018-06-09T00:46:17.950Z,20.1
2018-06-09T00:47:18.198Z,19.95
2018-06-09T00:48:18.204Z,19.97
2018-06-09T00:49:18.188Z,19.95
2018-06-09T00:50:18.248Z,19.94
2018-06-09T00:51:18.165Z,19.93
2018-06-09T00:52:17.892Z,19.95
2018-06-09T00:53:17.633Z,20
2018-06-09T00:54:17.885Z,20
2018-06-09T00:55:17.861Z,19.93
2018-06-09T00:56:17.855Z,19.9
2018-06-09T00:57:18.113Z,19.86
2018-06-09T00:58:17.833Z,19.87
2018-06-09T00:59:17.826Z,19.84
2018-06-09T01:00:17.811Z,19.86
2018-06-09T01:01:17.806Z,19.9
2018-06-09T01:02:17.796Z,19.94
2018-06-09T01:03:17.794Z,19.87
2018-06-09T01:04:17.777Z,19.87
2018-06-09T01:05:17.770Z,19.86
2018-06-09T01:06:18.023Z,19.83
2018-06-09T01:07:18.008Z,19.75
2018-06-09T01:08:17.736Z,19.79
2018-06-09T01:09:17.992Z,19.8
2018-06-09T01:10:17.982Z,19.8
2018-06-09T01:11:18.026Z,19.73
2018-06-09T01:12:17.432Z,19.75
2018-06-09T01:13:17.425Z,19.69
2018-06-09T01:14:17.675Z,19.57
2018-06-09T01:15:17.933Z,19.66
2018-06-09T01:16:17.653Z,19.58
2018-06-09T01:17:17.383Z,19.58
2018-06-09T01:18:17.638Z,19.63
2018-06-09T01:19:17.632Z,19.61
2018-06-09T01:20:17.365Z,19.58
2018-06-09T01:21:17.632Z,19.66
2018-06-09T01:22:17.333Z,19.55
2018-06-09T01:23:17.897Z,19.61
2018-06-09T01:24:17.590Z,19.6
2018-06-09T01:25:17.832Z,19.65
2018-06-09T01:26:17.823Z,19.68
2018-06-09T01:27:17.832Z,19.6
2018-06-09T01:28:17.275Z,19.5
2018-06-09T01:29:17.530Z,19.54
2018-06-09T01:30:17.782Z,19.54
2018-06-09T01:31:17.513Z,19.53
2018-06-09T01:32:17.767Z,19.53
2018-06-09T01:33:17.489Z,19.54
2018-06-09T01:34:17.530Z,19.53
2018-06-09T01:35:17.745Z,19.51
2018-06-09T01:36:17.458Z,19.54
2018-06-09T01:37:17.456Z,19.55
2018-06-09T01:38:17.491Z,19.5
2018-06-09T01:39:17.431Z,19.53
2018-06-09T01:40:17.159Z,19.47
2018-06-09T01:41:17.412Z,19.38
2018-06-09T01:42:17.413Z,19.53
2018-06-09T01:43:17.127Z,19.5
2018-06-09T01:44:17.651Z,19.43
2018-06-09T01:45:17.370Z,19.4
2018-06-09T01:46:17.360Z,19.39
2018-06-09T01:47:17.350Z,19.43
2018-06-09T01:48:17.607Z,19.38
2018-06-09T01:49:17.065Z,19.36
2018-06-09T01:50:17.584Z,19.38
2018-06-09T01:51:17.308Z,19.39
2018-06-09T01:52:17.036Z,19.35
2018-06-09T01:53:17.551Z,19.38
2018-06-09T01:54:17.542Z,19.4
2018-06-09T01:55:17.533Z,19.35
2018-06-09T01:56:17.259Z,19.35
2018-06-09T01:57:17.268Z,19.36
2018-06-09T01:58:17.240Z,19.33
2018-06-09T01:59:17.224Z,19.32
2018-06-09T02:00:17.221Z,19.32
2018-06-09T02:01:17.470Z,19.33
2018-06-09T02:02:17.196Z,19.32
2018-06-09T02:03:17.186Z,19.29
2018-06-09T02:04:17.184Z,19.28
2018-06-09T02:05:17.428Z,19.29
2018-06-09T02:06:17.429Z,19.31
2018-06-09T02:07:17.411Z,19.29
2018-06-09T02:08:17.401Z,19.32
2018-06-09T02:09:17.124Z,19.31
2018-06-09T02:10:17.384Z,19.31
2018-06-09T02:11:17.375Z,19.36
2018-06-09T02:12:17.098Z,19.29
2018-06-09T02:13:16.826Z,19.21
2018-06-09T02:14:17.392Z,19.24
2018-06-09T02:15:16.802Z,19.28
2018-06-09T02:16:17.321Z,19.13
2018-06-09T02:17:17.055Z,19.17
2018-06-09T02:18:17.309Z,19.13
2018-06-09T02:19:17.290Z,19.1
2018-06-09T02:20:17.281Z,19.11
2018-06-09T02:21:17.268Z,19.11
2018-06-09T02:22:16.729Z,19.17
2018-06-09T02:23:17.253Z,19.21
2018-06-09T02:24:17.236Z,19.13
2018-06-09T02:25:16.962Z,19.14
2018-06-09T02:26:16.954Z,19.18
2018-06-09T02:27:17.209Z,19.11
2018-06-09T02:28:16.937Z,19.14
2018-06-09T02:29:16.707Z,19.08
2018-06-09T02:30:17.181Z,19.06
2018-06-09T02:31:17.167Z,19.05
2018-06-09T02:32:16.905Z,19.06
2018-06-09T02:33:17.139Z,19.1
2018-06-09T02:34:16.613Z,19.08
2018-06-09T02:35:16.875Z,19.01
2018-06-09T02:36:16.589Z,19.05
2018-06-09T02:37:16.842Z,19.06
2018-06-09T02:38:16.836Z,18.95
2018-06-09T02:39:16.824Z,18.99
2018-06-09T02:40:16.814Z,19.02
2018-06-09T02:41:16.537Z,19.02
2018-06-09T02:42:16.793Z,18.98
2018-06-09T02:43:16.780Z,18.97
2018-06-09T02:44:17.031Z,19.01
2018-06-09T02:45:17.026Z,18.98
2018-06-09T02:46:16.754Z,18.94
2018-06-09T02:47:16.735Z,18.94
2018-06-09T02:48:16.467Z,18.97
2018-06-09T02:49:17.123Z,18.95
2018-06-09T02:50:16.713Z,18.98
2018-06-09T02:51:16.704Z,18.98
2018-06-09T02:52:16.962Z,18.97
2018-06-09T02:53:16.684Z,18.92
2018-06-09T02:54:16.942Z,18.97
2018-06-09T02:55:16.653Z,18.97
2018-06-09T02:56:16.388Z,18.97
2018-06-09T02:57:16.632Z,18.97
2018-06-09T02:58:16.899Z,18.95
2018-06-09T02:59:16.884Z,18.94
2018-06-09T03:00:16.607Z,18.95
2018-06-09T03:01:16.880Z,18.9
2018-06-09T03:02:16.602Z,19.01
2018-06-09T03:03:16.570Z,18.9
2018-06-09T03:04:16.827Z,18.92
2018-06-09T03:05:16.560Z,18.91
2018-06-09T03:06:16.541Z,18.9
2018-06-09T03:07:16.795Z,18.9
2018-06-09T03:08:16.789Z,18.92
2018-06-09T03:09:16.787Z,18.82
2018-06-09T03:10:16.772Z,18.9
2018-06-09T03:11:16.494Z,18.79
2018-06-09T03:12:16.487Z,18.79
2018-06-09T03:13:16.214Z,18.91
2018-06-09T03:14:16.719Z,18.82
2018-06-09T03:15:16.710Z,18.87
2018-06-09T03:16:16.445Z,18.8
2018-06-09T03:17:16.432Z,18.84
2018-06-09T03:18:16.434Z,18.9
2018-06-09T03:19:16.145Z,18.8
2018-06-09T03:20:16.657Z,18.9
2018-06-09T03:21:16.651Z,18.86
2018-06-09T03:22:16.377Z,18.86
2018-06-09T03:23:16.363Z,18.82
2018-06-09T03:24:16.615Z,18.87
2018-06-09T03:25:16.606Z,18.9
2018-06-09T03:26:16.336Z,18.82
2018-06-09T03:27:16.319Z,18.86
2018-06-09T03:28:16.571Z,18.8
2018-06-09T03:29:16.567Z,18.79
2018-06-09T03:30:16.554Z,18.84
2018-06-09T03:31:16.043Z,18.83
2018-06-09T03:32:16.005Z,18.76
2018-06-09T03:33:16.260Z,18.79
2018-06-09T03:34:16.520Z,18.76
2018-06-09T03:35:16.520Z,18.76
2018-06-09T03:36:16.231Z,18.77
2018-06-09T03:37:16.480Z,18.77
2018-06-09T03:38:16.213Z,18.79
2018-06-09T03:39:15.936Z,18.82
2018-06-09T03:40:16.193Z,18.74
2018-06-09T03:41:16.178Z,18.74
2018-06-09T03:42:16.368Z,18.76
2018-06-09T03:43:16.614Z,18.77
2018-06-09T03:44:16.406Z,18.72
2018-06-09T03:45:16.137Z,18.73
2018-06-09T03:46:16.124Z,18.74
2018-06-09T03:47:15.852Z,18.64
2018-06-09T03:48:16.106Z,18.65
2018-06-09T03:49:16.087Z,18.62
2018-06-09T03:50:16.079Z,18.57
2018-06-09T03:51:16.336Z,18.58
2018-06-09T03:52:16.322Z,18.62
2018-06-09T03:53:16.321Z,18.59
2018-06-09T03:54:16.039Z,18.54
2018-06-09T03:55:16.085Z,18.55
2018-06-09T03:56:16.277Z,18.54
2018-06-09T03:57:16.008Z,18.67
2018-06-09T03:58:15.992Z,18.54
2018-06-09T03:59:15.992Z,18.5
2018-06-09T04:00:16.242Z,18.54
2018-06-09T04:01:15.971Z,18.5
2018-06-09T04:02:15.697Z,18.61
2018-06-09T04:03:15.947Z,18.57
2018-06-09T04:04:15.670Z,18.52
2018-06-09T04:05:15.656Z,18.5
2018-06-09T04:06:15.913Z,18.59
2018-06-09T04:07:16.159Z,18.57
2018-06-09T04:08:15.888Z,18.52
2018-06-09T04:09:15.880Z,18.49
2018-06-09T04:10:15.605Z,18.49
2018-06-09T04:11:15.596Z,18.49
2018-06-09T04:12:16.109Z,18.46
2018-06-09T04:13:16.104Z,18.47
2018-06-09T04:14:16.089Z,18.46
2018-06-09T04:15:16.072Z,18.5
2018-06-09T04:16:16.072Z,18.49
2018-06-09T04:17:16.059Z,18.5
2018-06-09T04:18:15.523Z,18.5
2018-06-09T04:19:15.774Z,18.52
2018-06-09T04:20:16.030Z,18.5
2018-06-09T04:21:16.021Z,18.57
2018-06-09T04:22:16.000Z,18.57
2018-06-09T04:23:15.469Z,18.54
2018-06-09T04:24:15.983Z,18.52
2018-06-09T04:25:15.450Z,18.57
2018-06-09T04:26:15.967Z,18.54
2018-06-09T04:27:15.703Z,18.57
2018-06-09T04:28:15.720Z,18.58
2018-06-09T04:29:15.935Z,18.55
2018-06-09T04:30:15.658Z,18.59
2018-06-09T04:31:15.909Z,18.58
2018-06-09T04:32:15.895Z,18.57
2018-06-09T04:33:15.890Z,18.59
2018-06-09T04:34:15.880Z,18.62
2018-06-09T04:35:15.612Z,18.64
2018-06-09T04:36:15.593Z,18.62
2018-06-09T04:37:15.843Z,18.65
2018-06-09T04:38:15.312Z,18.64
2018-06-09T04:39:15.830Z,18.68
2018-06-09T04:40:15.815Z,18.74
2018-06-09T04:41:15.803Z,18.77
2018-06-09T04:42:15.809Z,18.7
2018-06-09T04:43:15.786Z,18.7
2018-06-09T04:44:15.510Z,18.86
2018-06-09T04:45:15.763Z,18.83
2018-06-09T04:46:15.752Z,18.83
2018-06-09T04:47:15.481Z,18.87
2018-06-09T04:48:15.201Z,18.9
2018-06-09T04:49:15.455Z,18.91
2018-06-09T04:50:15.445Z,18.94
2018-06-09T04:51:15.699Z,18.95
2018-06-09T04:52:15.823Z,19.02
2018-06-09T04:53:15.680Z,19.08
2018-06-09T04:54:15.677Z,19.02
2018-06-09T04:55:15.669Z,19.15
2018-06-09T04:56:15.651Z,19.14
2018-06-09T04:57:15.376Z,19.17
2018-06-09T04:58:15.637Z,19.17
2018-06-09T04:59:15.098Z,19.32
2018-06-09T05:00:15.613Z,19.29
2018-06-09T05:01:15.612Z,19.38
2018-06-09T05:02:15.599Z,19.43
2018-06-09T05:03:15.332Z,19.39
2018-06-09T05:04:15.574Z,19.55
2018-06-09T05:05:15.294Z,19.55
2018-06-09T05:06:15.548Z,19.54
2018-06-09T05:07:15.356Z,19.65
2018-06-09T05:08:15.269Z,19.6
2018-06-09T05:09:15.532Z,19.68
2018-06-09T05:10:15.552Z,19.69
2018-06-09T05:11:15.499Z,19.75
2018-06-09T05:12:14.968Z,19.75
2018-06-09T05:13:15.486Z,19.78
2018-06-09T05:14:14.940Z,19.75
2018-06-09T05:15:15.464Z,19.79
2018-06-09T05:16:15.449Z,19.87
2018-06-09T05:17:15.179Z,19.88
2018-06-09T05:18:14.900Z,19.84
2018-06-09T05:19:15.423Z,19.91
2018-06-09T05:20:15.421Z,19.87
2018-06-09T05:21:15.141Z,19.97
2018-06-09T05:22:15.133Z,19.91
2018-06-09T05:23:15.120Z,20
2018-06-09T05:24:15.377Z,20.02
2018-06-09T05:25:15.110Z,19.97
2018-06-09T05:26:15.397Z,19.93
2018-06-09T05:27:15.348Z,19.93
2018-06-09T05:28:15.112Z,20
2018-06-09T05:29:15.351Z,19.94
2018-06-09T05:30:15.320Z,19.94
2018-06-09T05:31:15.321Z,20.05
2018-06-09T05:32:15.300Z,20.08
2018-06-09T05:33:15.290Z,20.13
2018-06-09T05:34:15.277Z,20.05
2018-06-09T05:35:15.327Z,20.02
2018-06-09T05:36:15.261Z,19.97
2018-06-09T05:37:15.256Z,20.06
2018-06-09T05:38:15.244Z,19.94
2018-06-09T05:39:15.231Z,20.05
2018-06-09T05:40:14.968Z,20.05
2018-06-09T05:41:14.958Z,20.1
2018-06-09T05:42:14.678Z,20.06
2018-06-09T05:43:14.928Z,20.12
2018-06-09T05:44:14.662Z,20.1
2018-06-09T05:45:14.653Z,20.08
2018-06-09T05:46:14.904Z,20.06
2018-06-09T05:47:14.903Z,20.1
2018-06-09T05:48:14.627Z,20.08
2018-06-09T05:49:14.878Z,20.08
2018-06-09T05:50:14.881Z,20.09
2018-06-09T05:51:15.127Z,20.12
2018-06-09T05:52:14.588Z,20.13
2018-06-09T05:53:14.849Z,20.13
2018-06-09T05:54:15.104Z,20.18
2018-06-09T05:55:15.091Z,20.2
2018-06-09T05:56:14.554Z,20.15
2018-06-09T05:57:15.076Z,20.27
2018-06-09T05:58:14.567Z,20.2
2018-06-09T05:59:14.795Z,20.2
2018-06-09T06:00:15.042Z,20.24
2018-06-09T06:01:14.779Z,20.2
2018-06-09T06:02:15.027Z,20.24
2018-06-09T06:03:15.053Z,20.23
2018-06-09T06:04:14.740Z,20.27
2018-06-09T06:05:14.744Z,20.21
2018-06-09T06:06:14.719Z,20.33
2018-06-09T06:07:14.745Z,20.34
2018-06-09T06:08:14.974Z,20.24
2018-06-09T06:09:14.960Z,20.25
2018-06-09T06:10:14.945Z,20.39
2018-06-09T06:11:14.954Z,20.41
2018-06-09T06:12:14.936Z,20.39
2018-06-09T06:13:14.689Z,20.43
2018-06-09T06:14:14.907Z,20.38
2018-06-09T06:15:14.899Z,20.43
2018-06-09T06:16:14.637Z,20.53
2018-06-09T06:17:14.886Z,20.62
2018-06-09T06:18:14.877Z,20.71
2018-06-09T06:19:14.618Z,20.9
2018-06-09T06:20:14.334Z,20.96
2018-06-09T06:21:14.593Z,20.99
2018-06-09T06:22:14.589Z,20.98
2018-06-09T06:23:14.587Z,20.96
2018-06-09T06:24:14.825Z,21.05
2018-06-09T06:25:14.822Z,21.01
2018-06-09T06:26:14.558Z,21.04
2018-06-09T06:27:14.537Z,21.09
2018-06-09T06:28:14.793Z,21.06
2018-06-09T06:29:14.523Z,21.04
2018-06-09T06:30:14.507Z,21.06
2018-06-09T06:31:14.765Z,21.02
2018-06-09T06:32:14.231Z,20.99
2018-06-09T06:33:14.483Z,21.09
2018-06-09T06:34:14.470Z,20.99
2018-06-09T06:35:14.470Z,21.05
2018-06-09T06:36:14.453Z,21.05
2018-06-09T06:37:14.719Z,21.08
2018-06-09T06:38:14.175Z,21.08
2018-06-09T06:39:14.426Z,21.11
2018-06-09T06:40:14.423Z,21.05
2018-06-09T06:41:14.681Z,21.09
2018-06-09T06:42:14.404Z,21.09
2018-06-09T06:43:14.672Z,21.08
2018-06-09T06:44:14.390Z,21.04
2018-06-09T06:45:14.387Z,21.05
2018-06-09T06:46:14.108Z,21.01
2018-06-09T06:47:14.133Z,21.02
2018-06-09T06:48:14.625Z,20.96
2018-06-09T06:49:14.609Z,20.99
2018-06-09T06:50:14.883Z,20.91
2018-06-09T06:51:14.332Z,20.91
2018-06-09T06:52:14.588Z,20.91
2018-06-09T06:53:14.329Z,20.9
2018-06-09T06:54:14.306Z,20.84
2018-06-09T06:55:14.564Z,20.89
2018-06-09T06:56:14.545Z,20.87
2018-06-09T06:57:14.534Z,20.84
2018-06-09T06:58:14.276Z,20.81
2018-06-09T06:59:14.263Z,20.95
2018-06-09T07:00:14.246Z,20.95
2018-06-09T07:01:14.239Z,20.96
2018-06-09T07:02:14.293Z,21.02
2018-06-09T07:03:14.224Z,21.05
2018-06-09T07:04:14.222Z,21.06
2018-06-09T07:05:14.477Z,21.09
2018-06-09T07:06:14.195Z,21.23
2018-06-09T07:07:14.193Z,21.27
2018-06-09T07:08:13.918Z,21.38
2018-06-09T07:09:13.908Z,21.71
2018-06-09T07:10:14.432Z,22.47
2018-06-09T07:11:13.890Z,23.02
2018-06-09T07:12:14.157Z,23.61
2018-06-09T07:13:13.883Z,24.17
2018-06-09T07:14:14.132Z,24.59
2018-06-09T07:15:14.128Z,25.05
2018-06-09T07:16:14.144Z,25.32
2018-06-09T07:17:14.427Z,25.53
2018-06-09T07:18:13.844Z,25.86
2018-06-09T07:19:13.838Z,26.11
2018-06-09T07:20:13.824Z,26.49
2018-06-09T07:21:14.092Z,26.77
2018-06-09T07:22:14.178Z,26.89
2018-06-09T07:23:14.072Z,27.23
2018-06-09T07:24:14.071Z,27.53
2018-06-09T07:25:14.062Z,27.8
2018-06-09T07:26:13.793Z,28.1
2018-06-09T07:27:14.319Z,28.33
2018-06-09T07:28:13.781Z,28.63
2018-06-09T07:29:14.043Z,28.72
2018-06-09T07:30:14.035Z,28.7
2018-06-09T07:31:13.769Z,28.75
2018-06-09T07:32:14.029Z,28.95
2018-06-09T07:33:13.758Z,29.1
2018-06-09T07:34:14.022Z,29.18
2018-06-09T07:35:14.154Z,29.25
2018-06-09T07:36:13.750Z,29.16
2018-06-09T07:37:14.266Z,29.28
2018-06-09T07:38:13.737Z,29.38
2018-06-09T07:39:14.266Z,29.6
2018-06-09T07:40:13.999Z,29.72
2018-06-09T07:41:13.998Z,29.81
2018-06-09T07:42:14.249Z,29.65
2018-06-09T07:43:13.991Z,29.68
2018-06-09T07:44:14.243Z,29.84
2018-06-09T07:45:14.257Z,29.79
2018-06-09T07:46:13.978Z,29.93
2018-06-09T07:47:13.712Z,29.92
2018-06-09T07:48:14.236Z,29.68
2018-06-09T07:49:13.983Z,29.66
2018-06-09T07:50:14.236Z,29.4
2018-06-09T07:51:13.968Z,29.06
2018-06-09T07:52:14.221Z,28.43
2018-06-09T07:53:14.222Z,27.91
2018-06-09T07:54:14.051Z,27.46
2018-06-09T07:55:13.957Z,26.99
2018-06-09T07:56:14.522Z,26.52
2018-06-09T07:57:13.948Z,26.2
2018-06-09T07:58:13.951Z,25.82
2018-06-09T07:59:14.203Z,25.46
2018-06-09T08:00:13.934Z,25.3
2018-06-09T08:01:14.200Z,25.07
2018-06-09T08:02:13.933Z,25.06
2018-06-09T08:03:13.661Z,24.91
2018-06-09T08:04:13.660Z,24.76
2018-06-09T08:05:14.179Z,24.67
2018-06-09T08:06:13.916Z,24.57
2018-06-09T08:07:14.173Z,24.44
2018-06-09T08:08:13.905Z,24.35
2018-06-09T08:09:14.166Z,24.26
2018-06-09T08:10:14.159Z,24.17
2018-06-09T08:11:13.895Z,24.07
2018-06-09T08:12:13.626Z,24
2018-06-09T08:13:13.614Z,23.9
2018-06-09T08:14:14.143Z,23.98
2018-06-09T08:15:13.880Z,24
2018-06-09T08:16:13.862Z,24.04
2018-06-09T08:17:13.870Z,24.27
2018-06-09T08:18:13.854Z,24.49
2018-06-09T08:19:13.849Z,24.61
2018-06-09T08:20:13.844Z,24.63
2018-06-09T08:21:13.850Z,24.61
2018-06-09T08:22:13.837Z,24.52
2018-06-09T08:23:13.830Z,24.85
2018-06-09T08:24:14.088Z,24.91
2018-06-09T08:25:13.820Z,25.31
2018-06-09T08:26:13.815Z,25.83
2018-06-09T08:27:13.811Z,26.36
2018-06-09T08:28:14.076Z,26.77
2018-06-09T08:29:14.278Z,26.74
2018-06-09T08:30:14.070Z,26.68
2018-06-09T08:31:13.793Z,26.84
2018-06-09T08:32:14.049Z,26.83
2018-06-09T08:33:13.797Z,26.92
2018-06-09T08:34:13.522Z,26.92
2018-06-09T08:35:14.047Z,26.83
2018-06-09T08:36:14.077Z,26.74
2018-06-09T08:37:13.763Z,26.62
2018-06-09T08:38:13.765Z,26.5
2018-06-09T08:39:13.493Z,26.59
2018-06-09T08:40:13.767Z,26.54
2018-06-09T08:41:13.747Z,26.47
2018-06-09T08:42:13.753Z,26.39
2018-06-09T08:43:13.745Z,26.35
2018-06-09T08:44:13.738Z,26.06
2018-06-09T08:45:14.000Z,25.91
2018-06-09T08:46:13.729Z,25.77
2018-06-09T08:47:13.992Z,25.72
2018-06-09T08:48:13.988Z,25.74
2018-06-09T08:49:13.987Z,25.72
2018-06-09T08:50:13.917Z,25.82
2018-06-09T08:51:13.714Z,26.08
2018-06-09T08:52:13.702Z,26.22
2018-06-09T08:53:13.447Z,26.11
2018-06-09T08:54:13.959Z,26.01
2018-06-09T08:55:13.964Z,25.99
2018-06-09T08:56:13.950Z,25.9
2018-06-09T08:57:13.688Z,25.83
2018-06-09T08:58:13.947Z,25.97
2018-06-09T08:59:13.948Z,25.87
2018-06-09T09:00:13.933Z,25.8
2018-06-09T09:01:13.678Z,25.9
2018-06-09T09:02:13.395Z,26.02
2018-06-09T09:03:13.829Z,26.21
2018-06-09T09:04:13.401Z,26.57
2018-06-09T09:05:13.916Z,26.87
2018-06-09T09:06:13.919Z,27.13
2018-06-09T09:07:13.661Z,27.04
2018-06-09T09:08:13.909Z,27.32
2018-06-09T09:09:13.641Z,27.43
2018-06-09T09:10:13.648Z,27.85
2018-06-09T09:11:13.897Z,28.17
2018-06-09T09:12:13.902Z,28.43
2018-06-09T09:13:13.904Z,28.88
2018-06-09T09:14:13.635Z,29.38
2018-06-09T09:15:13.624Z,29.94
2018-06-09T09:16:13.894Z,29.63
2018-06-09T09:17:13.635Z,29.59
2018-06-09T09:18:13.890Z,29.5
2018-06-09T09:19:13.893Z,29.33
2018-06-09T09:20:13.898Z,29.31
2018-06-09T09:21:13.889Z,29.26
2018-06-09T09:22:13.620Z,29.18
2018-06-09T09:23:13.625Z,28.96
2018-06-09T09:24:13.366Z,28.5
2018-06-09T09:25:13.883Z,28.29
2018-06-09T09:26:13.629Z,28.06
2018-06-09T09:27:13.880Z,28.06
2018-06-09T09:28:13.880Z,27.86
2018-06-09T09:29:13.887Z,27.82
2018-06-09T09:30:13.612Z,27.67
2018-06-09T09:31:13.880Z,27.8
2018-06-09T09:32:13.741Z,27.73
2018-06-09T09:33:13.631Z,27.57
2018-06-09T09:34:13.606Z,27.79
2018-06-09T09:35:13.611Z,27.85
2018-06-09T09:36:13.888Z,28.1
2018-06-09T09:37:13.875Z,28.32
2018-06-09T09:38:13.876Z,28.56
2018-06-09T09:39:13.871Z,28.73
2018-06-09T09:40:13.870Z,28.9
2018-06-09T09:41:13.340Z,28.85
2018-06-09T09:42:13.870Z,28.54
2018-06-09T09:43:13.604Z,28.33
2018-06-09T09:44:13.336Z,28.38
2018-06-09T09:45:13.595Z,28.33
2018-06-09T09:46:13.607Z,28.38
2018-06-09T09:47:13.602Z,28.35
2018-06-09T09:48:13.596Z,28.28
2018-06-09T09:49:13.854Z,28.31
2018-06-09T09:50:13.594Z,28.23
2018-06-09T09:51:13.856Z,28.23
2018-06-09T09:52:13.593Z,28.22
2018-06-09T09:53:13.850Z,28.06
2018-06-09T09:54:13.849Z,27.96
2018-06-09T09:55:13.588Z,28.09
2018-06-09T09:56:13.848Z,27.99
2018-06-09T09:57:13.587Z,27.91
2018-06-09T09:58:13.580Z,27.85
2018-06-09T09:59:13.837Z,27.61
2018-06-09T10:00:13.574Z,27.53
2018-06-09T10:01:13.575Z,27.29
2018-06-09T10:02:13.842Z,27.21
2018-06-09T10:03:13.309Z,27.21
2018-06-09T10:04:13.828Z,27.21
2018-06-09T10:05:13.562Z,27.2
2018-06-09T10:06:13.301Z,27.2
2018-06-09T10:07:13.833Z,27.23
2018-06-09T10:08:13.290Z,27.24
2018-06-09T10:09:13.819Z,27.19
2018-06-09T10:10:13.288Z,27.23
2018-06-09T10:11:13.813Z,27.26
2018-06-09T10:12:13.817Z,27.29
2018-06-09T10:13:13.278Z,27.48
2018-06-09T10:14:13.819Z,27.57
2018-06-09T10:15:13.539Z,27.69
2018-06-09T10:16:13.802Z,27.89
2018-06-09T10:17:13.532Z,28.06
2018-06-09T10:18:13.537Z,28.4
2018-06-09T10:19:13.262Z,28.95
2018-06-09T10:20:13.794Z,29.38
2018-06-09T10:21:13.799Z,29.75
2018-06-09T10:22:13.538Z,29.99
2018-06-09T10:23:13.534Z,29.97
2018-06-09T10:24:13.529Z,30.27
2018-06-09T10:25:13.794Z,30.54
2018-06-09T10:26:13.543Z,30.99
2018-06-09T10:27:13.536Z,31.27
2018-06-09T10:28:13.536Z,31.55
2018-06-09T10:29:13.544Z,31.84
2018-06-09T10:30:13.542Z,31.98
2018-06-09T10:31:13.810Z,32.21
2018-06-09T10:32:13.814Z,32.14
2018-06-09T10:33:13.551Z,31.98
2018-06-09T10:34:13.830Z,31.65
2018-06-09T10:35:13.292Z,31.72
2018-06-09T10:36:13.563Z,31.98
2018-06-09T10:37:13.982Z,32.22
2018-06-09T10:38:13.563Z,32.48
2018-06-09T10:39:13.568Z,32.7
2018-06-09T10:40:13.581Z,32.95
2018-06-09T10:41:13.850Z,33.13
2018-06-09T10:42:13.851Z,33.36
2018-06-09T10:43:13.854Z,33.57
2018-06-09T10:44:13.329Z,33.71
2018-06-09T10:45:13.898Z,33.79
2018-06-09T10:46:13.872Z,33.9
2018-06-09T10:47:13.873Z,34.02
2018-06-09T10:48:13.615Z,34.14
2018-06-09T10:49:13.888Z,34.32
2018-06-09T10:50:13.820Z,34.38
2018-06-09T10:51:13.364Z,34.56
2018-06-09T10:52:13.903Z,34.76
2018-06-09T10:53:13.910Z,34.88
2018-06-09T10:54:13.639Z,34.81
2018-06-09T10:55:13.922Z,34.94
2018-06-09T10:56:13.666Z,35.06
2018-06-09T10:57:13.410Z,35.03
2018-06-09T10:58:13.674Z,35.01
2018-06-09T10:59:13.685Z,35.11
2018-06-09T11:00:13.947Z,35.23
2018-06-09T11:01:13.689Z,35.23
2018-06-09T11:02:13.692Z,35.33
2018-06-09T11:03:13.443Z,35.3
2018-06-09T11:04:13.705Z,35.11
2018-06-09T11:05:13.710Z,35.26
2018-06-09T11:06:13.467Z,35.17
2018-06-09T11:07:13.987Z,35.17
2018-06-09T11:08:13.727Z,35.26
2018-06-09T11:09:13.733Z,35.33
2018-06-09T11:10:13.817Z,35.4
2018-06-09T11:11:13.544Z,35.6
2018-06-09T11:12:13.768Z,35.69
2018-06-09T11:13:13.772Z,35.72
2018-06-09T11:14:14.034Z,35.79
2018-06-09T11:15:13.775Z,35.85
2018-06-09T11:16:14.051Z,35.91
2018-06-09T11:17:13.794Z,35.99
2018-06-09T11:18:14.108Z,36
2018-06-09T11:19:13.800Z,35.74
2018-06-09T11:20:14.098Z,35.81
2018-06-09T11:21:13.830Z,35.95
2018-06-09T11:22:13.562Z,35.66
2018-06-09T11:23:13.826Z,35.4
2018-06-09T11:24:13.830Z,35.58
2018-06-09T11:25:13.838Z,35.76
2018-06-09T11:26:14.139Z,35.84
2018-06-09T11:27:13.771Z,35.89
2018-06-09T11:28:14.123Z,35.89
2018-06-09T11:29:14.130Z,36.04
2018-06-09T11:30:13.876Z,36.2
2018-06-09T11:31:13.902Z,36.27
2018-06-09T11:32:14.157Z,36.29
2018-06-09T11:33:14.178Z,36.35
2018-06-09T11:34:13.911Z,36.48
2018-06-09T11:35:13.914Z,36.49
2018-06-09T11:36:14.184Z,36.57
2018-06-09T11:37:13.670Z,36.6
2018-06-09T11:38:13.940Z,36.65
2018-06-09T11:39:13.936Z,36.7
2018-06-09T11:40:14.208Z,36.67
2018-06-09T11:41:13.956Z,36.77
2018-06-09T11:42:13.969Z,36.75
2018-06-09T11:43:14.241Z,36.94
2018-06-09T11:44:14.016Z,36.99
2018-06-09T11:45:14.302Z,36.76
2018-06-09T11:46:14.036Z,36.48
2018-06-09T11:47:14.192Z,36.42
2018-06-09T11:48:14.007Z,36.43
2018-06-09T11:49:13.751Z,36.58
2018-06-09T11:50:14.284Z,36.56
2018-06-09T11:51:14.296Z,36.57
2018-06-09T11:52:13.771Z,36.65
2018-06-09T11:53:14.039Z,36.7
2018-06-09T11:54:14.052Z,36.63
2018-06-09T11:55:14.322Z,36.56
2018-06-09T11:56:14.063Z,36.42
2018-06-09T11:57:14.069Z,36.56
2018-06-09T11:58:14.345Z,36.79
2018-06-09T11:59:14.354Z,36.97
2018-06-09T12:00:14.092Z,36.99
2018-06-09T12:01:14.105Z,36.99
2018-06-09T12:02:14.108Z,37.01
2018-06-09T12:03:13.853Z,36.99
2018-06-09T12:04:14.385Z,37.01
2018-06-09T12:05:14.131Z,37.02
2018-06-09T12:06:14.142Z,37.07
2018-06-09T12:07:14.152Z,37.23
2018-06-09T12:08:14.424Z,37.21
2018-06-09T12:09:14.430Z,37.23
2018-06-09T12:10:14.430Z,37.36
2018-06-09T12:11:14.199Z,37.46
2018-06-09T12:12:14.444Z,37.58
2018-06-09T12:13:13.926Z,37.68
2018-06-09T12:14:14.228Z,37.7
2018-06-09T12:15:14.210Z,37.58
2018-06-09T12:16:14.235Z,37.58
2018-06-09T12:17:14.663Z,37.58
2018-06-09T12:18:13.969Z,37.7
2018-06-09T12:19:14.239Z,37.58
2018-06-09T12:20:13.980Z,37.66
2018-06-09T12:21:14.519Z,37.67
2018-06-09T12:22:14.522Z,37.64
2018-06-09T12:23:14.529Z,37.73
2018-06-09T12:24:14.010Z,37.68
2018-06-09T12:25:14.551Z,37.77
2018-06-09T12:26:14.299Z,37.9
2018-06-09T12:27:14.299Z,38.01
2018-06-09T12:28:14.303Z,38.08
2018-06-09T12:29:14.314Z,38.14
2018-06-09T12:30:14.581Z,38.11
2018-06-09T12:31:14.593Z,38.08
2018-06-09T12:32:14.342Z,38.15
2018-06-09T12:33:14.612Z,38.11
2018-06-09T12:34:14.357Z,38.18
2018-06-09T12:35:14.622Z,38.2
2018-06-09T12:36:14.366Z,38.27
2018-06-09T12:37:14.639Z,38.22
2018-06-09T12:38:14.383Z,38.3
2018-06-09T12:39:14.386Z,38.1
2018-06-09T12:40:14.400Z,38.1
2018-06-09T12:41:14.719Z,38.08
2018-06-09T12:42:14.412Z,38.12
2018-06-09T12:43:14.424Z,38.22
2018-06-09T12:44:14.690Z,38.23
2018-06-09T12:45:14.707Z,38.29
2018-06-09T12:46:14.446Z,38.39
2018-06-09T12:47:14.460Z,38.44
2018-06-09T12:48:14.722Z,38.45
2018-06-09T12:49:14.730Z,38.41
2018-06-09T12:50:14.678Z,37.93
2018-06-09T12:51:14.531Z,37.77
2018-06-09T12:52:14.523Z,37.83
2018-06-09T12:53:14.768Z,37.88
2018-06-09T12:54:14.790Z,37.98
2018-06-09T12:55:14.795Z,37.98
2018-06-09T12:56:14.265Z,37.89